Wichita, KS (67218)

4:13 PM CST on November 26, 2014 (GMT -0600)
Peach Tree | Change Station
CLOSE
Current Station
Personal Weather Station
Location: Eastborough, KS
Elevation: 1368 ft
Nearby Weather Stations

Elev 1368 ft 37.68 °N, 97.26 °W | Updated 3 minutes ago

Partly Cloudy
Partly Cloudy
42.3 °F
Feels Like 42 °F
N
3.0
Wind Variable Wind from WNW
Gusts 3.0 mph

Today
High -- | Low -- °F
--% Chance of Precip.
Yesterday
High -- | Low -- °F
Precip. -- in
7:20 AM 5:12 PM
Waxing Crescent, 23% visible
Pressure 30.27 in
Visibility 10.0 miles
Clouds Clear
Windchill 42 °F
Dew Point 25 °F
Humidity 50%
Rainfall 0.00 in
Snow Depth Not available.
UV 1.9 out of 12
Pollen .10 out of 12
Air Quality Not available.
Flu Activity Not available.
METAR KIAB 262158Z AUTO 34015G25KT 10SM CLR 06/M06 A3024 RMK AO2 PK WND 30029/24 CIG 110 RWY19 SLP249 T00601062

More Conditions Fewer Conditions

Pressure 30.27 in
Visibility 10.0 miles
Clouds Clear
Windchill 42 °F
Dew Point 25 °F
Humidity 50%
Rainfall 0.00 in
Snow Depth Not available.
UV 1.9 out of 12
Pollen .10 out of 12
Air Quality Not available.
Flu Activity Not available.
METAR KIAB 262158Z AUTO 34015G25KT 10SM CLR 06/M06 A3024 RMK AO2 PK WND 30029/24 CIG 110 RWY19 SLP249 T00601062

More Conditions Fewer Conditions

10-Day Weather Forecast

Almanac

Astronomy

Nov. 26, 2014 Rise Set
Actual Time
Civil Twilight
Nautical Twilight
Astronomical Twilight
Moon
Length of Visible Light
Length of Day
Tomorrow will be .
, % of the Moon is Illuminated

Today's Extremes

State Highs State Lows

Community

WunderPhotos

Upload Photos

1,773,888 photos uploaded!

WunderBlogs® & News

Nearby

Air Quality

  Air Quality AQ Index Pollutant
Not available.

Snow Depth

Station Depth Elevation

Earthquake Activity

City Distance Mag. Time & Date
Minimum magnitude displayed is 2.5.

Coastal Water Temperatures

Place Temperature

Nearby Weather Stations